Time;durP1;ratioP1;P1;durP2;ratioP2;P2;SDS_P1;SDS_P2;PMS_P1;PMS_P2;Temp;Humidity;BMP_temperature;BMP_pressure;BME280_temperature;BME280_humidity;BME280_pressure;Samples;Min_cycle;Max_cycle;Signal;HPM_P1;HPM_P2
2023/05/05 00:01:07;;;;;;;7.30;3.87;;;22.20;40.50;;;;;;4948702;29;20455;-79
2023/05/05 00:03:37;;;;;;;5.40;4.20;;;22.20;40.50;;;;;;4958606;29;20478;-80
2023/05/05 00:06:06;;;;;;;8.73;4.10;;;22.20;40.50;;;;;;4960816;29;20474;-79
2023/05/05 00:08:34;;;;;;;4.43;4.00;;;22.20;40.50;;;;;;4955161;29;20475;-80
2023/05/05 00:11:02;;;;;;;5.00;4.07;;;22.20;40.50;;;;;;4964700;29;20455;-80
2023/05/05 00:13:31;;;;;;;7.50;4.20;;;22.10;40.40;;;;;;4961205;29;20451;-79
2023/05/05 00:15:59;;;;;;;4.17;3.83;;;22.10;40.50;;;;;;4958109;28;20451;-80
2023/05/05 00:18:28;;;;;;;4.33;3.93;;;22.10;40.50;;;;;;4956295;29;20506;-80
2023/05/05 00:20:58;;;;;;;7.57;3.83;;;22.00;40.50;;;;;;4963895;28;20518;-79
2023/05/05 00:23:26;;;;;;;4.90;4.37;;;22.00;40.50;;;;;;4948118;29;20479;-80
2023/05/05 00:25:54;;;;;;;10.57;4.03;;;22.00;40.60;;;;;;4951564;29;20924;-80
2023/05/05 00:28:23;;;;;;;4.77;4.20;;;22.00;40.60;;;;;;4951406;29;20447;-78
2023/05/05 00:30:51;;;;;;;7.43;4.20;;;21.90;40.50;;;;;;4954377;29;20451;-80
2023/05/05 00:33:20;;;;;;;9.80;4.07;;;21.90;40.50;;;;;;4958045;29;20491;-80
2023/05/05 00:35:48;;;;;;;10.80;4.87;;;21.90;40.60;;;;;;4955535;29;20478;-79
2023/05/05 00:38:17;;;;;;;6.00;3.93;;;21.90;40.60;;;;;;4954897;29;20458;-81
2023/05/05 00:40:45;;;;;;;5.20;3.73;;;21.80;40.60;;;;;;4958948;29;20458;-81
2023/05/05 00:43:13;;;;;;;6.63;4.30;;;21.80;40.60;;;;;;4956707;28;20459;-81
2023/05/05 00:45:46;;;;;;;6.43;4.10;;;21.70;40.60;;;;;;4960188;29;20454;-81
2023/05/05 00:48:15;;;;;;;4.60;4.17;;;21.70;40.60;;;;;;4954623;29;20458;-78
2023/05/05 00:50:44;;;;;;;6.50;3.90;;;21.70;40.60;;;;;;4968713;28;20815;-81
2023/05/05 00:53:12;;;;;;;5.63;3.97;;;21.70;40.60;;;;;;4963773;28;20491;-80
2023/05/05 00:55:41;;;;;;;5.03;3.90;;;21.70;40.70;;;;;;4964689;29;20463;-82
2023/05/05 00:58:09;;;;;;;7.33;4.10;;;21.70;40.60;;;;;;4963133;29;20471;-80
2023/05/05 01:00:38;;;;;;;5.63;3.80;;;21.70;40.60;;;;;;4962067;29;20451;-79
2023/05/05 01:03:07;;;;;;;5.03;3.77;;;21.60;40.60;;;;;;4964713;29;20458;-82
2023/05/05 01:05:53;;;;;;;4.37;3.63;;;21.60;40.80;;;;;;4952141;29;20483;-81
2023/05/05 01:08:29;;;;;;;4.80;4.10;;;21.60;40.70;;;;;;4953689;29;20653;-82
2023/05/05 01:11:01;;;;;;;4.80;3.30;;;21.60;40.80;;;;;;4957564;29;20451;-81
2023/05/05 01:13:36;;;;;;;3.80;3.50;;;21.50;40.70;;;;;;4965255;29;20455;-79
2023/05/05 01:16:08;;;;;;;5.20;4.10;;;21.50;40.80;;;;;;4950565;29;20447;-80
2023/05/05 01:18:38;;;;;;;4.47;3.70;;;21.50;40.70;;;;;;4952327;29;20464;-80
2023/05/05 01:21:12;;;;;;;3.90;3.27;;;21.40;40.80;;;;;;4949365;29;20435;-79
2023/05/05 01:24:10;;;;;;;5.47;3.40;;;21.40;40.70;;;;;;4945052;29;20479;-81
2023/05/05 01:26:50;;;;;;;4.47;3.60;;;21.40;40.80;;;;;;4946519;29;20450;-79
2023/05/05 01:29:38;;;;;;;4.47;4.07;;;21.40;41.00;;;;;;4949214;29;20456;-81
2023/05/05 01:32:09;;;;;;;4.30;3.90;;;21.30;40.80;;;;;;4960897;29;20467;-82
2023/05/05 01:34:40;;;;;;;6.43;3.67;;;21.30;40.90;;;;;;4952032;28;20447;-81
2023/05/05 01:37:11;;;;;;;7.27;3.70;;;21.30;41.00;;;;;;4960642;28;20526;-80
2023/05/05 01:39:39;;;;;;;3.93;3.53;;;21.30;41.00;;;;;;4948181;28;20474;-81
2023/05/05 01:42:09;;;;;;;7.43;3.70;;;21.30;41.00;;;;;;4945732;29;20485;-77
2023/05/05 01:44:37;;;;;;;4.43;3.83;;;21.20;41.10;;;;;;4953237;29;20559;-81
2023/05/05 01:47:05;;;;;;;3.87;3.50;;;21.20;41.10;;;;;;4954201;29;20455;-79
2023/05/05 01:49:35;;;;;;;4.53;4.07;;;21.20;41.10;;;;;;4951114;29;20530;-79
2023/05/05 01:52:04;;;;;;;3.43;3.23;;;21.20;41.20;;;;;;4945405;29;20471;-80
2023/05/05 01:54:33;;;;;;;6.80;4.87;;;21.20;41.20;;;;;;4937642;28;20479;-78
2023/05/05 01:57:02;;;;;;;12.90;9.60;;;21.20;41.20;;;;;;4949469;29;20486;-78
2023/05/05 01:59:30;;;;;;;10.70;6.30;;;21.20;41.20;;;;;;4944969;29;20455;-79
2023/05/05 02:01:58;;;;;;;12.13;8.20;;;21.10;41.20;;;;;;4948806;29;20475;-79
2023/05/05 02:04:27;;;;;;;12.10;7.67;;;21.10;41.30;;;;;;4949764;29;20471;-78
2023/05/05 02:06:56;;;;;;;13.80;8.40;;;21.10;41.10;;;;;;4957437;29;20519;-82
2023/05/05 02:09:24;;;;;;;10.97;8.80;;;21.10;41.40;;;;;;4957441;29;20451;-81
2023/05/05 02:11:53;;;;;;;14.07;8.93;;;21.10;41.30;;;;;;4958039;29;20538;-81
2023/05/05 02:14:21;;;;;;;12.57;9.33;;;21.00;41.30;;;;;;4961556;29;20451;-80
2023/05/05 02:16:49;;;;;;;15.13;11.00;;;21.00;41.40;;;;;;4962751;29;20473;-78
2023/05/05 02:19:17;;;;;;;14.53;10.53;;;21.00;41.30;;;;;;4957792;29;20456;-80
2023/05/05 02:21:45;;;;;;;14.33;10.50;;;21.00;41.40;;;;;;4944277;29;20486;-80
2023/05/05 02:24:15;;;;;;;17.60;12.23;;;21.00;41.30;;;;;;4954871;29;20534;-80
2023/05/05 02:26:43;;;;;;;15.53;11.10;;;21.00;41.60;;;;;;4951093;29;20511;-80
2023/05/05 02:29:14;;;;;;;17.10;12.30;;;20.90;41.50;;;;;;4954592;29;20534;-80
2023/05/05 02:31:45;;;;;;;20.53;12.80;;;20.90;41.50;;;;;;4943461;28;20499;-80
2023/05/05 02:34:13;;;;;;;21.67;13.33;;;20.90;41.50;;;;;;4946316;29;20455;-80
2023/05/05 02:36:41;;;;;;;20.47;13.90;;;20.80;41.50;;;;;;4943603;29;20447;-79
2023/05/05 02:39:12;;;;;;;19.43;13.03;;;20.80;41.70;;;;;;4953452;29;20447;-79
2023/05/05 02:41:42;;;;;;;16.40;12.37;;;20.80;41.70;;;;;;4960825;29;20486;-83
2023/05/05 02:44:10;;;;;;;19.20;13.70;;;20.80;41.80;;;;;;4955794;29;20471;-83
2023/05/05 02:46:38;;;;;;;20.43;13.60;;;20.80;41.70;;;;;;4959045;29;20534;-82
2023/05/05 02:49:07;;;;;;;19.20;13.00;;;20.80;41.80;;;;;;4953720;29;20443;-80
2023/05/05 02:51:35;;;;;;;17.70;12.97;;;20.70;41.70;;;;;;4954178;29;20463;-80
2023/05/05 02:54:04;;;;;;;19.13;12.30;;;20.70;41.80;;;;;;4954992;29;20463;-82
2023/05/05 02:56:34;;;;;;;17.40;11.83;;;20.70;41.80;;;;;;4965617;29;20456;-80
2023/05/05 02:59:15;;;;;;;19.30;13.20;;;20.70;41.80;;;;;;4948642;29;20457;-80
2023/05/05 03:01:50;;;;;;;21.73;12.73;;;20.70;41.90;;;;;;4949793;29;20463;-79
2023/05/05 03:04:23;;;;;;;17.87;12.20;;;20.70;41.90;;;;;;4948046;29;20453;-83
2023/05/05 03:06:52;;;;;;;18.50;12.70;;;20.60;42.00;;;;;;4951379;29;20531;-82
2023/05/05 03:09:22;;;;;;;20.27;12.80;;;20.60;41.90;;;;;;4956121;29;20452;-80
2023/05/05 03:11:54;;;;;;;17.93;12.37;;;20.60;41.90;;;;;;4950907;29;20473;-81
2023/05/05 03:14:23;;;;;;;16.13;11.80;;;20.60;41.90;;;;;;4954105;29;20439;-79
2023/05/05 03:16:51;;;;;;;16.33;11.20;;;20.60;42.00;;;;;;4958882;29;20457;-80
2023/05/05 03:19:20;;;;;;;14.03;10.67;;;20.60;42.10;;;;;;4951246;29;20490;-79
2023/05/05 03:21:48;;;;;;;14.37;10.93;;;20.50;42.10;;;;;;4960782;29;20531;-80
2023/05/05 03:24:18;;;;;;;16.07;11.87;;;20.50;41.90;;;;;;4952348;28;20476;-81
2023/05/05 03:26:46;;;;;;;14.60;11.00;;;20.50;41.90;;;;;;4955550;28;20468;-80
2023/05/05 03:29:14;;;;;;;13.90;9.80;;;20.40;42.00;;;;;;4958015;29;20530;-80
2023/05/05 03:31:44;;;;;;;15.27;11.10;;;20.40;42.20;;;;;;4956926;29;21064;-79
2023/05/05 03:34:13;;;;;;;15.70;10.60;;;20.40;42.20;;;;;;4958307;29;20447;-81
2023/05/05 03:36:41;;;;;;;15.73;10.40;;;20.40;42.20;;;;;;4950992;29;20458;-81
2023/05/05 03:39:09;;;;;;;14.00;9.40;;;20.40;42.20;;;;;;4958743;29;20471;-80
2023/05/05 03:41:37;;;;;;;13.97;10.27;;;20.40;42.20;;;;;;4959823;29;20522;-81
2023/05/05 03:44:06;;;;;;;14.47;9.63;;;20.30;42.30;;;;;;4961412;29;20536;-80
2023/05/05 03:46:34;;;;;;;13.13;9.90;;;20.30;42.30;;;;;;4958641;29;20489;-82
2023/05/05 03:49:04;;;;;;;13.50;9.03;;;20.30;42.80;;;;;;4950535;29;20945;-81
2023/05/05 03:51:32;;;;;;;12.20;9.17;;;20.30;42.20;;;;;;4957808;29;20471;-79
2023/05/05 03:54:01;;;;;;;11.07;8.60;;;20.30;42.30;;;;;;4955659;29;20823;-81
2023/05/05 03:56:29;;;;;;;12.67;8.73;;;20.30;42.40;;;;;;4947725;29;20477;-80
2023/05/05 03:58:57;;;;;;;12.80;8.47;;;20.30;42.40;;;;;;4952835;29;20461;-80
2023/05/05 04:01:25;;;;;;;12.33;8.80;;;20.30;42.40;;;;;;4956848;29;20549;-80
2023/05/05 04:03:53;;;;;;;11.83;8.20;;;20.30;42.40;;;;;;4963075;29;20454;-81
2023/05/05 04:06:23;;;;;;;12.30;8.23;;;20.30;42.60;;;;;;4958246;29;20476;-80
2023/05/05 04:08:53;;;;;;;10.57;8.63;;;20.30;42.50;;;;;;4960566;29;20448;-82
2023/05/05 04:11:21;;;;;;;11.40;7.70;;;20.30;42.30;;;;;;4950684;29;20448;-81
2023/05/05 04:13:50;;;;;;;10.27;7.30;;;20.30;42.50;;;;;;4963774;29;20479;-81
2023/05/05 04:16:18;;;;;;;9.87;7.70;;;20.30;42.30;;;;;;4963653;29;20623;-81
2023/05/05 04:18:46;;;;;;;11.73;8.00;;;20.30;42.50;;;;;;4957843;29;20444;-81
2023/05/05 04:21:14;;;;;;;11.53;8.23;;;20.30;42.50;;;;;;4966830;29;20671;-80
2023/05/05 04:23:44;;;;;;;8.70;6.80;;;20.30;42.40;;;;;;4957895;29;20473;-80
2023/05/05 04:26:12;;;;;;;11.07;7.30;;;20.20;42.50;;;;;;4964511;29;20558;-81
2023/05/05 04:28:40;;;;;;;8.87;7.30;;;20.30;42.70;;;;;;4962083;29;20447;-82
2023/05/05 04:31:09;;;;;;;9.40;7.37;;;20.30;43.20;;;;;;4964005;29;20531;-81
2023/05/05 04:33:40;;;;;;;10.23;6.67;;;20.30;42.40;;;;;;4955230;29;20455;-80
2023/05/05 04:36:08;;;;;;;10.23;7.00;;;20.30;42.50;;;;;;4955328;29;20503;-81
2023/05/05 04:38:36;;;;;;;12.43;7.20;;;20.30;42.40;;;;;;4958980;29;20501;-82
2023/05/05 04:41:06;;;;;;;9.33;6.37;;;20.30;42.40;;;;;;4952503;29;20451;-79
2023/05/05 04:43:34;;;;;;;8.07;6.30;;;20.20;42.50;;;;;;4955872;29;20459;-80
2023/05/05 04:46:03;;;;;;;9.13;6.10;;;20.30;42.40;;;;;;4960127;29;20552;-82
2023/05/05 04:48:31;;;;;;;7.80;5.90;;;20.30;42.40;;;;;;4957492;29;20455;-80
2023/05/05 04:51:03;;;;;;;9.43;6.67;;;20.30;42.40;;;;;;4959241;29;20459;-80
2023/05/05 04:53:31;;;;;;;7.70;6.17;;;20.30;42.40;;;;;;4951381;29;20451;-81
2023/05/05 04:55:59;;;;;;;6.10;5.30;;;20.30;42.40;;;;;;4954441;29;20448;-82
2023/05/05 04:58:29;;;;;;;8.33;6.17;;;20.20;42.40;;;;;;4957282;29;20542;-81
2023/05/05 05:00:58;;;;;;;9.07;5.60;;;20.20;42.50;;;;;;4958655;29;20466;-80
2023/05/05 05:03:26;;;;;;;7.07;6.20;;;20.20;42.40;;;;;;4955438;29;20456;-81
2023/05/05 05:05:54;;;;;;;8.63;6.13;;;20.20;42.40;;;;;;4959291;29;20479;-80
2023/05/05 05:08:22;;;;;;;12.73;5.60;;;20.20;42.30;;;;;;4950240;29;20458;-80
2023/05/05 05:10:53;;;;;;;8.37;5.63;;;20.20;42.50;;;;;;4955112;29;20516;-81
2023/05/05 05:13:22;;;;;;;8.10;5.80;;;20.20;42.40;;;;;;4958332;29;20476;-81
2023/05/05 05:15:51;;;;;;;6.00;5.23;;;20.20;42.40;;;;;;4958882;29;20473;-82
2023/05/05 05:18:19;;;;;;;7.27;5.40;;;20.20;42.50;;;;;;4956320;29;20455;-81
2023/05/05 05:20:47;;;;;;;7.70;5.40;;;20.30;42.50;;;;;;4954920;29;20469;-82
2023/05/05 05:23:15;;;;;;;9.57;5.53;;;20.30;42.40;;;;;;4950739;29;20466;-81
2023/05/05 05:25:43;;;;;;;5.53;4.83;;;20.40;42.30;;;;;;4955067;29;20483;-82
2023/05/05 05:28:11;;;;;;;5.97;5.10;;;20.40;42.10;;;;;;4960708;29;20482;-81
2023/05/05 05:30:42;;;;;;;5.23;4.73;;;20.40;42.20;;;;;;4951786;29;20436;-81
2023/05/05 05:33:11;;;;;;;5.97;4.67;;;20.50;42.10;;;;;;4950049;29;20495;-81
2023/05/05 05:35:40;;;;;;;5.63;5.10;;;20.50;41.90;;;;;;4954047;29;20448;-81
2023/05/05 05:38:08;;;;;;;6.40;4.60;;;20.60;42.00;;;;;;4945232;29;20466;-79
2023/05/05 05:40:36;;;;;;;5.90;4.90;;;20.60;41.90;;;;;;4960545;29;20444;-83
2023/05/05 05:43:05;;;;;;;5.00;4.50;;;20.70;41.90;;;;;;4948578;29;20510;-80
2023/05/05 05:45:33;;;;;;;4.83;4.33;;;20.70;41.90;;;;;;4954222;29;20453;-81
2023/05/05 05:48:02;;;;;;;5.33;4.53;;;20.70;41.80;;;;;;4950600;28;20546;-79
2023/05/05 05:50:31;;;;;;;6.93;4.50;;;20.60;41.60;;;;;;4951535;29;20475;-81
2023/05/05 05:53:00;;;;;;;7.63;4.50;;;20.70;41.80;;;;;;4955516;29;20471;-81
2023/05/05 05:55:28;;;;;;;4.70;4.07;;;20.70;41.80;;;;;;4958066;29;20456;-80
2023/05/05 05:57:59;;;;;;;6.63;4.10;;;20.60;41.70;;;;;;4957565;29;20483;-81
2023/05/05 06:00:27;;;;;;;5.77;4.83;;;20.60;42.00;;;;;;4949045;29;20461;-81
2023/05/05 06:02:55;;;;;;;5.00;4.50;;;20.60;41.80;;;;;;4950185;29;20472;-80
2023/05/05 06:05:23;;;;;;;5.03;4.13;;;20.60;41.90;;;;;;4961964;28;20454;-80
2023/05/05 06:07:53;;;;;;;4.73;4.17;;;20.60;42.00;;;;;;4952910;28;20480;-81
2023/05/05 06:10:21;;;;;;;4.60;4.00;;;20.60;42.10;;;;;;4949521;29;20448;-81
2023/05/05 06:12:54;;;;;;;6.60;3.90;;;20.60;42.00;;;;;;4943864;29;20509;-81
2023/05/05 06:15:22;;;;;;;4.13;3.83;;;20.60;42.00;;;;;;4961356;29;20451;-82
2023/05/05 06:17:51;;;;;;;7.43;4.23;;;20.60;42.10;;;;;;4956596;29;20463;-80
2023/05/05 06:20:19;;;;;;;6.77;4.40;;;20.50;42.00;;;;;;4958565;28;20483;-81
2023/05/05 06:22:47;;;;;;;4.73;4.20;;;20.50;42.10;;;;;;4958183;29;20460;-80
2023/05/05 06:25:16;;;;;;;5.37;4.07;;;20.60;42.10;;;;;;4959564;29;20472;-81
2023/05/05 06:27:45;;;;;;;5.40;3.77;;;20.50;42.30;;;;;;4950369;29;20479;-81
2023/05/05 06:30:14;;;;;;;3.97;3.57;;;20.50;42.20;;;;;;4951836;29;20455;-80
2023/05/05 06:32:42;;;;;;;6.53;4.27;;;20.50;42.20;;;;;;4957641;29;20517;-82
2023/05/05 06:35:10;;;;;;;6.50;3.93;;;20.50;42.30;;;;;;4957715;29;20455;-80
2023/05/05 06:37:39;;;;;;;4.07;3.67;;;20.50;42.10;;;;;;4950597;28;20468;-78
2023/05/05 06:40:09;;;;;;;4.13;3.73;;;20.50;42.30;;;;;;4957926;28;20439;-80
2023/05/05 06:42:40;;;;;;;4.20;3.80;;;20.50;42.30;;;;;;4947477;29;20483;-78
2023/05/05 06:45:09;;;;;;;4.10;3.70;;;20.50;42.30;;;;;;4958872;29;20447;-81
2023/05/05 06:47:37;;;;;;;3.67;3.37;;;20.50;42.50;;;;;;4957085;29;21005;-79
2023/05/05 06:50:08;;;;;;;5.50;4.03;;;20.50;42.30;;;;;;4959828;29;20455;-81
2023/05/05 06:52:37;;;;;;;3.87;3.40;;;20.50;42.50;;;;;;4953576;29;20471;-80
2023/05/05 06:55:06;;;;;;;4.20;3.50;;;20.50;42.50;;;;;;4950665;29;20474;-80
2023/05/05 06:57:34;;;;;;;3.70;3.40;;;20.50;42.60;;;;;;4951785;29;20452;-81
2023/05/05 07:00:08;;;;;;;3.93;3.47;;;20.50;42.60;;;;;;4944868;29;20444;-81
2023/05/05 07:02:36;;;;;;;4.00;3.60;;;20.50;42.60;;;;;;4958930;29;20498;-80
2023/05/05 07:05:05;;;;;;;3.70;3.40;;;20.40;42.60;;;;;;4958847;29;20542;-81
2023/05/05 07:07:33;;;;;;;3.60;3.30;;;20.40;42.70;;;;;;4954600;28;20499;-82
2023/05/05 07:10:01;;;;;;;3.80;3.50;;;20.40;42.80;;;;;;4955217;29;20447;-81
2023/05/05 07:12:30;;;;;;;4.37;3.60;;;20.40;42.80;;;;;;4953094;29;20494;-82
2023/05/05 07:14:59;;;;;;;4.87;3.50;;;20.40;42.80;;;;;;4957753;29;20443;-80
2023/05/05 07:17:37;;;;;;;3.47;3.20;;;20.50;42.70;;;;;;4950220;29;20507;-81
2023/05/05 07:20:07;;;;;;;4.07;3.67;;;20.50;42.80;;;;;;4966434;28;20450;-81
2023/05/05 07:22:35;;;;;;;4.13;3.40;;;20.50;42.60;;;;;;4951592;28;20475;-80
2023/05/05 07:25:03;;;;;;;4.50;3.23;;;20.60;43.00;;;;;;4949974;29;20454;-82
2023/05/05 07:27:32;;;;;;;4.00;3.00;;;20.70;42.80;;;;;;4956709;29;20495;-80
2023/05/05 07:30:00;;;;;;;3.30;3.00;;;20.70;42.80;;;;;;4960402;29;20457;-79
2023/05/05 07:32:30;;;;;;;5.50;3.57;;;20.80;42.60;;;;;;4955133;28;20483;-79
2023/05/05 07:35:00;;;;;;;3.40;3.10;;;20.90;42.50;;;;;;4958909;28;20482;-81
2023/05/05 07:37:28;;;;;;;4.83;3.20;;;21.00;42.60;;;;;;4952985;29;20447;-81
2023/05/05 07:39:56;;;;;;;3.90;3.60;;;21.00;42.70;;;;;;4959927;29;20482;-81
2023/05/05 07:42:28;;;;;;;3.67;3.37;;;21.00;42.40;;;;;;4955611;29;20503;-80
2023/05/05 07:44:56;;;;;;;2.93;2.73;;;21.00;42.60;;;;;;4950526;28;20501;-81
2023/05/05 07:47:27;;;;;;;3.50;3.20;;;21.00;42.50;;;;;;4958799;29;20452;-83
2023/05/05 07:49:58;;;;;;;12.70;6.37;;;20.90;43.20;;;;;;4955241;29;20443;-83
2023/05/05 07:52:28;;;;;;;9.40;5.93;;;20.00;44.50;;;;;;4958080;29;20501;-83
2023/05/05 07:55:14;;;;;;;7.80;5.33;;;19.80;46.60;;;;;;4962005;29;20539;-83
2023/05/05 07:57:42;;;;;;;9.23;5.90;;;19.60;47.40;;;;;;4964366;29;20447;-82
2023/05/05 08:00:12;;;;;;;6.93;4.73;;;19.30;47.80;;;;;;4963456;29;20455;-79
2023/05/05 08:02:42;;;;;;;11.70;5.73;;;19.50;49.20;;;;;;4948674;29;20460;-79
2023/05/05 08:05:11;;;;;;;10.00;5.13;;;19.80;48.70;;;;;;4960651;29;20458;-81
2023/05/05 08:07:41;;;;;;;7.23;4.53;;;20.10;47.90;;;;;;4955239;28;20464;-81
2023/05/05 08:10:10;;;;;;;7.40;4.40;;;20.30;47.30;;;;;;4958490;29;20520;-82
2023/05/05 08:12:41;;;;;;;7.37;4.77;;;20.40;46.90;;;;;;4962921;29;20472;-81
2023/05/05 08:15:12;;;;;;;14.87;4.53;;;20.50;46.40;;;;;;4965554;29;20473;-79
2023/05/05 08:17:45;;;;;;;9.23;4.17;;;20.60;46.30;;;;;;4961860;29;20436;-79
2023/05/05 08:20:14;;;;;;;6.10;4.00;;;20.60;46.00;;;;;;4946785;29;20447;-81
2023/05/05 08:22:43;;;;;;;10.10;4.40;;;20.70;46.00;;;;;;4949985;29;20468;-80
2023/05/05 08:25:12;;;;;;;7.30;4.50;;;20.80;45.70;;;;;;4946467;29;20452;-80
2023/05/05 08:27:40;;;;;;;6.37;3.53;;;20.80;45.60;;;;;;4945973;29;20458;-81
2023/05/05 08:30:09;;;;;;;7.83;3.87;;;20.80;45.60;;;;;;4953904;29;20457;-78
2023/05/05 08:32:37;;;;;;;8.87;3.90;;;20.90;45.50;;;;;;4947688;29;20480;-78
2023/05/05 08:35:06;;;;;;;7.83;4.00;;;21.00;45.20;;;;;;4952977;29;20450;-80
2023/05/05 08:37:35;;;;;;;11.13;4.07;;;21.10;45.20;;;;;;4941732;29;20452;-79
2023/05/05 08:40:05;;;;;;;7.20;3.90;;;21.20;45.10;;;;;;4949204;29;20458;-79
2023/05/05 08:42:34;;;;;;;6.90;3.70;;;21.20;44.80;;;;;;4956303;29;20478;-78
2023/05/05 08:45:06;;;;;;;5.03;3.67;;;21.30;44.60;;;;;;4943907;29;20451;-79
2023/05/05 08:47:37;;;;;;;4.40;3.30;;;21.30;44.60;;;;;;4946691;29;20451;-78
2023/05/05 08:50:06;;;;;;;5.77;3.73;;;21.40;44.50;;;;;;4944064;29;20527;-79
2023/05/05 08:52:39;;;;;;;5.13;3.60;;;21.50;44.30;;;;;;4953223;29;20573;-79
2023/05/05 08:55:13;;;;;;;5.70;3.70;;;21.50;44.20;;;;;;4959519;28;20443;-81
2023/05/05 08:57:44;;;;;;;4.23;3.90;;;21.60;44.10;;;;;;4953242;29;20451;-78
2023/05/05 09:00:13;;;;;;;5.47;3.70;;;21.60;44.10;;;;;;4955512;29;20454;-79
2023/05/05 09:02:41;;;;;;;5.27;3.23;;;21.70;43.70;;;;;;4951169;29;20478;-80
2023/05/05 09:05:10;;;;;;;5.23;3.60;;;21.80;43.80;;;;;;4954339;28;20447;-81
2023/05/05 09:07:40;;;;;;;13.60;4.30;;;21.90;43.80;;;;;;4955039;29;20447;-81
2023/05/05 09:10:11;;;;;;;9.97;5.20;;;21.70;47.30;;;;;;4953646;29;20463;-79
2023/05/05 09:12:40;;;;;;;7.70;4.30;;;22.00;47.70;;;;;;4956882;29;20568;-82
2023/05/05 09:15:09;;;;;;;8.17;4.07;;;22.50;49.90;;;;;;4941817;29;20494;-81
2023/05/05 09:17:37;;;;;;;11.13;4.20;;;22.90;49.40;;;;;;4953911;29;20505;-78
2023/05/05 09:20:07;;;;;;;30.67;4.27;;;23.40;49.80;;;;;;4940869;29;20456;-79
2023/05/05 09:22:36;;;;;;;10.63;4.10;;;23.70;49.80;;;;;;4950109;29;20546;-77
2023/05/05 09:25:05;;;;;;;14.57;4.27;;;24.00;49.50;;;;;;4952035;29;20509;-80
2023/05/05 09:27:37;;;;;;;10.53;4.00;;;24.30;49.30;;;;;;4947737;29;20470;-78
2023/05/05 09:30:06;;;;;;;12.67;3.77;;;24.50;49.30;;;;;;4945112;29;20536;-79
2023/05/05 09:32:47;;;;;;;4.63;3.73;;;24.80;48.80;;;;;;4951959;28;20566;-79
2023/05/05 09:35:16;;;;;;;8.80;3.50;;;25.00;48.50;;;;;;4944960;29;20459;-80
2023/05/05 09:37:44;;;;;;;17.23;4.10;;;25.20;47.20;;;;;;4948287;29;20478;-81
2023/05/05 09:40:17;;;;;;;10.53;4.40;;;25.20;47.00;;;;;;4954370;29;20446;-81
2023/05/05 09:43:00;;;;;;;9.23;4.27;;;25.20;46.40;;;;;;4951169;29;20479;-80
2023/05/05 09:45:32;;;;;;;5.40;3.77;;;25.30;46.20;;;;;;4953819;29;20429;-81
2023/05/05 09:48:00;;;;;;;15.00;4.20;;;25.30;45.70;;;;;;4954035;29;20478;-80
2023/05/05 09:50:31;;;;;;;14.33;4.00;;;25.40;45.50;;;;;;4952396;29;20545;-81
2023/05/05 09:53:00;;;;;;;7.60;4.00;;;25.60;45.00;;;;;;4952621;28;20467;-82
2023/05/05 09:55:29;;;;;;;8.37;3.20;;;25.70;44.70;;;;;;4954829;29;20430;-80
2023/05/05 09:58:14;;;;;;;11.50;3.90;;;25.80;44.30;;;;;;4947702;29;20444;-81
2023/05/05 10:00:46;;;;;;;15.70;3.77;;;25.90;44.00;;;;;;4948982;29;21039;-82
2023/05/05 10:03:15;;;;;;;13.77;3.47;;;25.90;43.60;;;;;;4950871;29;20475;-82
2023/05/05 10:05:50;;;;;;;14.10;3.80;;;26.00;43.40;;;;;;4954208;29;20430;-81
2023/05/05 10:08:19;;;;;;;7.20;3.30;;;26.10;43.30;;;;;;4950218;29;20465;-80
2023/05/05 10:10:50;;;;;;;12.07;4.00;;;26.30;43.20;;;;;;4943952;29;20448;-81
2023/05/05 10:13:20;;;;;;;11.83;4.20;;;26.40;42.80;;;;;;4940844;29;20472;-81
2023/05/05 10:15:50;;;;;;;9.80;3.73;;;26.50;42.40;;;;;;4946515;29;20421;-80
2023/05/05 10:18:22;;;;;;;6.40;3.53;;;26.60;42.10;;;;;;4949866;29;20450;-81
2023/05/05 10:20:57;;;;;;;11.87;3.50;;;26.70;41.80;;;;;;4947464;28;20454;-82
2023/05/05 10:23:28;;;;;;;11.03;3.77;;;26.90;41.70;;;;;;4948926;28;20456;-82
2023/05/05 10:26:00;;;;;;;12.80;3.30;;;27.00;41.40;;;;;;4943819;29;20430;-81
2023/05/05 10:28:34;;;;;;;6.90;3.60;;;27.10;41.20;;;;;;4955080;29;20458;-79
2023/05/05 10:31:02;;;;;;;11.80;3.03;;;27.30;41.00;;;;;;4957630;28;20520;-81
2023/05/05 10:33:49;;;;;;;16.70;3.33;;;27.40;40.80;;;;;;4953601;29;20454;-82
2023/05/05 10:36:18;;;;;;;11.17;3.30;;;27.50;40.60;;;;;;4951524;29;20462;-82
2023/05/05 10:38:46;;;;;;;7.93;3.53;;;27.60;40.30;;;;;;4955195;29;20427;-80
2023/05/05 10:41:14;;;;;;;8.30;3.10;;;27.70;40.10;;;;;;4957695;29;20422;-82
2023/05/05 10:43:44;;;;;;;7.00;3.20;;;27.80;39.80;;;;;;4953193;29;20463;-81
2023/05/05 10:46:12;;;;;;;4.60;3.13;;;28.00;39.70;;;;;;4950294;29;20461;-81
2023/05/05 10:48:45;;;;;;;6.47;3.57;;;28.10;39.40;;;;;;4956342;29;20417;-83
2023/05/05 10:51:24;;;;;;;5.57;3.13;;;28.30;39.10;;;;;;4958092;29;20521;-81
2023/05/05 10:54:09;;;;;;;4.53;2.73;;;28.30;38.80;;;;;;4957810;29;20449;-83
2023/05/05 10:56:40;;;;;;;3.20;2.80;;;28.50;38.70;;;;;;4941049;28;20422;-83
2023/05/05 10:59:41;;;;;;;4.03;3.20;;;28.60;38.40;;;;;;4953679;29;20463;-81
2023/05/05 11:02:22;;;;;;;5.17;2.97;;;28.70;38.10;;;;;;4947174;29;20446;-82
2023/05/05 11:05:13;;;;;;;4.73;2.97;;;28.80;37.70;;;;;;4954569;29;20451;-81
2023/05/05 11:07:42;;;;;;;6.83;3.03;;;28.90;37.50;;;;;;4955430;28;20436;-80
2023/05/05 11:10:11;;;;;;;8.00;3.37;;;29.00;37.30;;;;;;4951544;28;21022;-81
2023/05/05 11:13:22;;;;;;;11.00;3.43;;;29.20;37.10;;;;;;4956393;29;20558;-81
2023/05/05 11:15:53;;;;;;;3.93;2.80;;;30.10;36.90;;;;;;4928496;28;21005;-84
2023/05/05 11:18:32;;;;;;;7.10;2.80;;;31.30;35.30;;;;;;4946585;29;20455;-82
2023/05/05 11:21:19;;;;;;;8.10;2.70;;;32.40;33.90;;;;;;4956489;29;20514;-83
2023/05/05 11:23:52;;;;;;;2.83;2.63;;;33.40;32.00;;;;;;4957494;28;20446;-83
2023/05/05 11:26:51;;;;;;;7.20;2.70;;;34.40;30.70;;;;;;4943547;28;20450;-82
2023/05/05 11:29:19;;;;;;;6.10;2.80;;;35.10;29.60;;;;;;4954605;29;20494;-82
2023/05/05 11:32:14;;;;;;;2.50;2.30;;;35.90;28.70;;;;;;4953938;28;21000;-82
2023/05/05 11:34:48;;;;;;;9.93;2.43;;;36.50;28.20;;;;;;4949696;29;20444;-83
2023/05/05 11:37:17;;;;;;;4.30;2.10;;;37.30;27.40;;;;;;4950179;28;20451;-82
2023/05/05 11:39:51;;;;;;;2.53;2.33;;;37.80;26.70;;;;;;4944075;29;20447;-83
2023/05/05 11:42:24;;;;;;;4.33;2.33;;;38.20;26.60;;;;;;4956602;28;20500;-83
2023/05/05 11:44:55;;;;;;;2.20;2.00;;;38.60;25.80;;;;;;4960071;29;20446;-83
2023/05/05 11:47:31;;;;;;;2.00;1.80;;;39.00;25.50;;;;;;4952067;29;20846;-82
2023/05/05 11:50:16;;;;;;;2.07;1.97;;;39.40;25.00;;;;;;4953151;29;20484;-83
2023/05/05 11:52:45;;;;;;;2.23;2.03;;;39.50;24.90;;;;;;4957803;29;20889;-82
2023/05/05 11:55:15;;;;;;;2.13;1.90;;;39.90;24.60;;;;;;4949419;29;20442;-83
2023/05/05 11:57:43;;;;;;;2.83;2.17;;;40.00;24.50;;;;;;4953174;28;20459;-83
2023/05/05 12:00:12;;;;;;;1.90;1.80;;;40.20;24.10;;;;;;4951889;29;20624;-84
2023/05/05 12:02:42;;;;;;;3.03;2.10;;;40.40;24.20;;;;;;4954139;29;20533;-82
2023/05/05 12:05:17;;;;;;;3.03;2.10;;;40.60;23.90;;;;;;4957012;29;20494;-83
2023/05/05 12:07:46;;;;;;;1.77;1.70;;;40.70;23.60;;;;;;4947690;28;20445;-83
2023/05/05 12:10:22;;;;;;;1.87;1.77;;;40.80;23.70;;;;;;4949947;29;20471;-80
2023/05/05 12:12:50;;;;;;;2.57;2.00;;;40.90;23.50;;;;;;4959048;29;20466;-83
2023/05/05 12:15:30;;;;;;;1.93;1.83;;;41.00;23.40;;;;;;4953718;28;20530;-83
2023/05/05 12:18:01;;;;;;;2.20;2.10;;;41.00;23.40;;;;;;4952012;29;20875;-82
2023/05/05 12:20:31;;;;;;;2.10;2.00;;;41.10;23.20;;;;;;4955885;29;20471;-83
2023/05/05 12:23:01;;;;;;;2.33;1.87;;;41.00;23.20;;;;;;4955795;28;20531;-82
2023/05/05 12:25:37;;;;;;;2.03;1.70;;;41.10;23.20;;;;;;4948749;29;20478;-83
2023/05/05 12:28:07;;;;;;;2.53;1.80;;;41.00;23.10;;;;;;4946876;29;20487;-82
2023/05/05 12:30:35;;;;;;;3.67;1.93;;;40.70;23.30;;;;;;4955711;29;20489;-82
2023/05/05 12:33:06;;;;;;;2.07;1.80;;;40.10;23.40;;;;;;4951050;29;20517;-80
2023/05/05 12:35:37;;;;;;;2.57;2.47;;;39.80;23.90;;;;;;4954773;28;20454;-81
2023/05/05 12:38:05;;;;;;;3.10;2.03;;;39.30;24.00;;;;;;4948737;29;20519;-83
2023/05/05 12:40:44;;;;;;;2.43;2.30;;;38.80;24.40;;;;;;4942174;29;20476;-82
2023/05/05 12:43:28;;;;;;;2.40;2.20;;;38.00;24.80;;;;;;4941570;29;20468;-83
2023/05/05 12:46:04;;;;;;;2.37;2.27;;;36.90;25.50;;;;;;4944790;29;20454;-81
2023/05/05 12:48:34;;;;;;;7.03;2.60;;;35.80;26.40;;;;;;4948631;29;20444;-82
2023/05/05 12:51:16;;;;;;;2.90;2.70;;;34.80;27.30;;;;;;4951512;28;20439;-82
2023/05/05 12:53:44;;;;;;;5.03;2.60;;;33.70;28.40;;;;;;4957666;29;20447;-81
2023/05/05 12:56:31;;;;;;;5.37;2.60;;;33.10;29.20;;;;;;4954909;29;20467;-82
2023/05/05 12:59:02;;;;;;;4.60;2.87;;;32.40;29.80;;;;;;4951861;29;20451;-83
2023/05/05 13:01:30;;;;;;;2.90;2.60;;;32.40;30.30;;;;;;4954191;29;20479;-84